»·PEaware :: N226AN KLAX-KSNA

N226AN :: KLAX-KSNA

FLIGHT INFORMATION

Flight Status: Arrived
Operator: Privately registered:
United States
More flights under this callsign
Pilot: Romain L. (19401)
Aircraft: AIRBUS A320
(A320)
More flights by this aircraft type
Origin: KLAX Los Angeles Intl
United States
Destination: KSNA John Wayne-Orange Co
United States
More flights between these airports :: More routes between these airports
Route: LAXX1 SLI
File this flight plan on PilotEdge
Remarks: I6 rating
Altitude:
(Current/Filed)
5,000ft
Speed:
(Current/Filed)
0kts
Departed: 10-Oct-18 11:53 AM
Arrived: 10-Oct-18 12:20 PM
Distance/Time
Traveled:
31nm/0:26
Distance/Time
To Go:
Arrived

Flight Plot

Page will automatically refresh every two minutes.

Flight plan parsing failed; only flown route is shown


Map Options




Map Legend


Flown Route
Filed Route
Departure Airport
Arrival Airport
Navaid (VOR, NDB)
Fix

Horizontal Profiles

Position Reports

Time Latitude Longitude Heading Altitude Ground
Speed
10-Oct-18 11:35 33.940862 -118.402561 96 136ft 0kts
10-Oct-18 11:36 33.940862 -118.402561 96 136ft 0kts
10-Oct-18 11:37 33.940862 -118.402561 96 136ft 0kts
10-Oct-18 11:38 33.940862 -118.402561 96 136ft 0kts
10-Oct-18 11:39 33.940862 -118.402561 96 136ft 0kts
10-Oct-18 11:40 33.940862 -118.402561 96 136ft 0kts
10-Oct-18 11:41 33.940862 -118.402561 96 136ft 0kts
10-Oct-18 11:42 33.940875 -118.402711 95 136ft 2kts
10-Oct-18 11:43 33.941055 -118.403193 165 136ft 1kts
10-Oct-18 11:44 33.941275 -118.403230 172 136ft 0kts
10-Oct-18 11:45 33.941275 -118.403230 172 136ft 0kts
10-Oct-18 11:46 33.941275 -118.403230 172 136ft 0kts
10-Oct-18 11:47 33.940979 -118.403182 172 136ft 12kts
10-Oct-18 11:48 33.938590 -118.402151 89 136ft 8kts
10-Oct-18 11:49 33.939185 -118.396427 81 136ft 21kts
10-Oct-18 11:50 33.939952 -118.388722 83 136ft 25kts
10-Oct-18 11:51 33.940500 -118.383385 82 136ft 7kts
10-Oct-18 11:52 33.940743 -118.380339 113 136ft 0kts
10-Oct-18 11:53 33.940743 -118.380339 113 136ft 0kts
10-Oct-18 11:54 33.940676 -118.380212 130 136ft 5kts
10-Oct-18 11:55 33.939426 -118.384334 263 136ft 92kts
10-Oct-18 11:56 33.930564 -118.458232 248 3411ft 239kts
10-Oct-18 11:57 33.885671 -118.525922 205 4956ft 272kts
10-Oct-18 11:58 33.812676 -118.546997 192 4969ft 272kts
10-Oct-18 11:59 33.751081 -118.562898 193 4969ft 273kts
10-Oct-18 12:00 33.689879 -118.526824 123 4969ft 274kts
10-Oct-18 12:01 33.661111 -118.430600 83 4970ft 273kts
10-Oct-18 12:02 33.668941 -118.355500 82 4969ft 273kts
10-Oct-18 12:03 33.678101 -118.265389 82 4969ft 273kts
10-Oct-18 12:04 33.687172 -118.175513 82 4969ft 273kts
10-Oct-18 12:05 33.696276 -118.085373 82 4969ft 273kts
10-Oct-18 12:06 33.735734 -118.022373 0 4970ft 270kts
10-Oct-18 12:07 33.805021 -118.033052 34 4969ft 271kts
10-Oct-18 12:08 33.824405 -117.951768 64 3986ft 270kts
10-Oct-18 12:09 33.862147 -117.858354 63 3967ft 269kts
10-Oct-18 12:10 33.888982 -117.791559 63 3969ft 264kts
10-Oct-18 12:11 33.918027 -117.720448 51 3966ft 217kts
10-Oct-18 12:12 33.981905 -117.691868 15 3972ft 214kts
10-Oct-18 12:13 34.022540 -117.709278 290 3826ft 210kts
10-Oct-18 12:14 33.986031 -117.747195 164 3526ft 227kts
10-Oct-18 12:15 33.931243 -117.726100 162 3517ft 195kts
10-Oct-18 12:16 33.881406 -117.738642 207 3518ft 194kts
10-Oct-18 12:17 33.834040 -117.768557 208 3346ft 196kts
10-Oct-18 12:18 33.785019 -117.799608 208 2329ft 212kts
10-Oct-18 12:19 33.739093 -117.828673 208 1350ft 157kts
10-Oct-18 12:20 33.705815 -117.849765 208 625ft 131kts
10-Oct-18 12:21 33.675230 -117.869074 203 65ft 75kts
10-Oct-18 12:22 33.669270 -117.871807 137 65ft 0kts
10-Oct-18 12:23 33.669270 -117.871807 137 65ft 0kts
10-Oct-18 12:24 33.669270 -117.871807 137 65ft 0kts
10-Oct-18 12:25 33.670254 -117.869727 40 65ft 13kts
10-Oct-18 12:26 33.673963 -117.866547 27 65ft 14kts
10-Oct-18 12:27 33.675354 -117.865121 109 65ft 3kts
10-Oct-18 12:28 33.675274 -117.864899 115 65ft 0kts
10-Oct-18 12:29 33.675274 -117.864899 115 65ft 0kts
10-Oct-18 12:30 33.675274 -117.864899 115 65ft 0kts

Navigation Log

Ident Type
Flight plan parsing failed, navigation log unavailable